sensor_id;sensor_type;location;lat;lon;timestamp;pressure;altitude;pressure_sealevel;temperature;humidity
76285;BME280;65096;50.998;7.098;2023-06-14T00:01:11;100650.28;;;20.32;30.51
76285;BME280;65096;50.998;7.098;2023-06-14T00:03:40;100649.53;;;20.29;30.09
76285;BME280;65096;50.998;7.098;2023-06-14T00:06:06;100646.22;;;20.24;30.30
76285;BME280;65096;50.998;7.098;2023-06-14T00:08:33;100649.91;;;20.18;30.76
76285;BME280;65096;50.998;7.098;2023-06-14T00:11:01;100647.41;;;20.15;30.89
76285;BME280;65096;50.998;7.098;2023-06-14T00:13:28;100651.88;;;20.12;31.04
76285;BME280;65096;50.998;7.098;2023-06-14T00:15:54;100644.22;;;20.06;31.00
76285;BME280;65096;50.998;7.098;2023-06-14T00:18:21;100650.28;;;20.06;30.98
76285;BME280;65096;50.998;7.098;2023-06-14T00:20:49;100652.94;;;20.05;30.75
76285;BME280;65096;50.998;7.098;2023-06-14T00:23:16;100657.44;;;20.01;30.62
76285;BME280;65096;50.998;7.098;2023-06-14T00:25:43;100659.38;;;19.96;31.21
76285;BME280;65096;50.998;7.098;2023-06-14T00:28:11;100662.03;;;19.95;30.97
76285;BME280;65096;50.998;7.098;2023-06-14T00:30:37;100656.97;;;19.89;30.82
76285;BME280;65096;50.998;7.098;2023-06-14T00:33:04;100658.88;;;19.84;30.38
76285;BME280;65096;50.998;7.098;2023-06-14T00:35:31;100660.81;;;19.79;31.50
76285;BME280;65096;50.998;7.098;2023-06-14T00:37:58;100667.84;;;19.77;30.91
76285;BME280;65096;50.998;7.098;2023-06-14T00:40:24;100667.00;;;19.76;31.19
76285;BME280;65096;50.998;7.098;2023-06-14T00:42:51;100666.13;;;19.76;30.98
76285;BME280;65096;50.998;7.098;2023-06-14T00:45:19;100662.06;;;19.67;31.04
76285;BME280;65096;50.998;7.098;2023-06-14T00:47:46;100669.81;;;19.70;30.87
76285;BME280;65096;50.998;7.098;2023-06-14T00:50:14;100673.41;;;19.66;31.43
76285;BME280;65096;50.998;7.098;2023-06-14T00:52:40;100672.69;;;19.63;31.35
76285;BME280;65096;50.998;7.098;2023-06-14T00:55:08;100667.63;;;19.57;31.00
76285;BME280;65096;50.998;7.098;2023-06-14T00:57:35;100674.63;;;19.56;30.86
76285;BME280;65096;50.998;7.098;2023-06-14T01:00:03;100680.84;;;19.52;31.60
76285;BME280;65096;50.998;7.098;2023-06-14T01:02:31;100684.31;;;19.53;31.78
76285;BME280;65096;50.998;7.098;2023-06-14T01:04:58;100688.78;;;19.49;31.42
76285;BME280;65096;50.998;7.098;2023-06-14T01:07:36;100694.00;;;19.49;31.72
76285;BME280;65096;50.998;7.098;2023-06-14T01:10:23;100687.22;;;19.44;31.46
76285;BME280;65096;50.998;7.098;2023-06-14T01:12:58;100689.91;;;19.41;32.15
76285;BME280;65096;50.998;7.098;2023-06-14T01:15:26;100686.47;;;19.40;31.70
76285;BME280;65096;50.998;7.098;2023-06-14T01:17:55;100689.16;;;19.37;32.03
76285;BME280;65096;50.998;7.098;2023-06-14T01:20:29;100690.94;;;19.35;31.80
76285;BME280;65096;50.998;7.098;2023-06-14T01:22:57;100683.22;;;19.31;31.60
76285;BME280;65096;50.998;7.098;2023-06-14T01:25:24;100689.34;;;19.30;31.30
76285;BME280;65096;50.998;7.098;2023-06-14T01:27:53;100688.81;;;19.19;31.66
76285;BME280;65096;50.998;7.098;2023-06-14T01:30:22;100682.06;;;19.12;31.74
76285;BME280;65096;50.998;7.098;2023-06-14T01:32:51;100691.75;;;19.08;31.75
76285;BME280;65096;50.998;7.098;2023-06-14T01:35:19;100684.97;;;19.01;31.63
76285;BME280;65096;50.998;7.098;2023-06-14T01:37:47;100687.75;;;18.95;31.69
76285;BME280;65096;50.998;7.098;2023-06-14T01:40:18;100691.56;;;18.83;32.08
76285;BME280;65096;50.998;7.098;2023-06-14T01:42:46;100692.53;;;18.81;31.69
76285;BME280;65096;50.998;7.098;2023-06-14T01:45:14;100686.69;;;18.71;31.46
76285;BME280;65096;50.998;7.098;2023-06-14T01:47:42;100668.81;;;18.55;31.36
76285;BME280;65096;50.998;7.098;2023-06-14T01:50:10;100690.63;;;18.54;31.65
76285;BME280;65096;50.998;7.098;2023-06-14T01:52:37;100689.69;;;18.56;31.85
76285;BME280;65096;50.998;7.098;2023-06-14T01:55:04;100690.53;;;18.57;31.93
76285;BME280;65096;50.998;7.098;2023-06-14T01:57:32;100692.19;;;18.59;31.72
76285;BME280;65096;50.998;7.098;2023-06-14T01:59:59;100691.28;;;18.63;31.99
76285;BME280;65096;50.998;7.098;2023-06-14T02:02:25;100692.03;;;18.67;31.51
76285;BME280;65096;50.998;7.098;2023-06-14T02:04:52;100679.53;;;18.46;31.79
76285;BME280;65096;50.998;7.098;2023-06-14T02:07:22;100682.19;;;18.44;31.60
76285;BME280;65096;50.998;7.098;2023-06-14T02:09:50;100680.31;;;18.48;31.69
76285;BME280;65096;50.998;7.098;2023-06-14T02:12:18;100683.94;;;18.44;31.38
76285;BME280;65096;50.998;7.098;2023-06-14T02:14:45;100684.94;;;18.38;31.83
76285;BME280;65096;50.998;7.098;2023-06-14T02:17:13;100677.78;;;18.45;32.05
76285;BME280;65096;50.998;7.098;2023-06-14T02:19:41;100681.06;;;18.53;32.17
76285;BME280;65096;50.998;7.098;2023-06-14T02:22:08;100687.94;;;18.57;32.13
76285;BME280;65096;50.998;7.098;2023-06-14T02:24:35;100692.16;;;18.61;31.54
76285;BME280;65096;50.998;7.098;2023-06-14T02:27:02;100698.25;;;18.63;31.78
76285;BME280;65096;50.998;7.098;2023-06-14T02:29:28;100691.28;;;18.63;31.66
76285;BME280;65096;50.998;7.098;2023-06-14T02:31:56;100699.94;;;18.64;31.41
76285;BME280;65096;50.998;7.098;2023-06-14T02:34:23;100700.00;;;18.61;32.11
76285;BME280;65096;50.998;7.098;2023-06-14T02:36:50;100703.59;;;18.57;31.93
76285;BME280;65096;50.998;7.098;2023-06-14T02:39:17;100712.28;;;18.57;32.04
76285;BME280;65096;50.998;7.098;2023-06-14T02:41:48;100707.19;;;18.53;31.63
76285;BME280;65096;50.998;7.098;2023-06-14T02:44:14;100707.19;;;18.53;31.98
76285;BME280;65096;50.998;7.098;2023-06-14T02:46:42;100708.91;;;18.54;31.72
76285;BME280;65096;50.998;7.098;2023-06-14T02:49:11;100715.06;;;18.51;31.97
76285;BME280;65096;50.998;7.098;2023-06-14T02:51:37;100715.88;;;18.53;32.20
76285;BME280;65096;50.998;7.098;2023-06-14T02:54:04;100719.44;;;18.51;32.32
76285;BME280;65096;50.998;7.098;2023-06-14T02:56:31;100716.00;;;18.49;32.80
76285;BME280;65096;50.998;7.098;2023-06-14T02:58:57;100711.75;;;18.45;32.55
76285;BME280;65096;50.998;7.098;2023-06-14T03:01:26;100723.13;;;18.42;32.52
76285;BME280;65096;50.998;7.098;2023-06-14T03:03:59;100722.34;;;18.39;33.28
76285;BME280;65096;50.998;7.098;2023-06-14T03:06:27;100723.25;;;18.38;33.37
76285;BME280;65096;50.998;7.098;2023-06-14T03:08:55;100732.03;;;18.34;33.18
76285;BME280;65096;50.998;7.098;2023-06-14T03:11:22;100725.16;;;18.31;33.37
76285;BME280;65096;50.998;7.098;2023-06-14T03:13:49;100726.13;;;18.27;32.97
76285;BME280;65096;50.998;7.098;2023-06-14T03:16:16;100727.94;;;18.24;33.40
76285;BME280;65096;50.998;7.098;2023-06-14T03:18:44;100730.59;;;18.22;33.47
76285;BME280;65096;50.998;7.098;2023-06-14T03:21:11;100739.41;;;18.18;33.02
76285;BME280;65096;50.998;7.098;2023-06-14T03:23:39;100746.41;;;18.16;33.89
76285;BME280;65096;50.998;7.098;2023-06-14T03:26:06;100743.00;;;18.13;33.85
76285;BME280;65096;50.998;7.098;2023-06-14T03:28:33;100737.81;;;18.11;33.52
76285;BME280;65096;50.998;7.098;2023-06-14T03:30:59;100746.56;;;18.10;33.84
76285;BME280;65096;50.998;7.098;2023-06-14T03:33:26;100750.13;;;18.06;34.06
76285;BME280;65096;50.998;7.098;2023-06-14T03:35:53;100746.75;;;18.03;35.06
76285;BME280;65096;50.998;7.098;2023-06-14T03:38:21;100748.50;;;18.02;35.10
76285;BME280;65096;50.998;7.098;2023-06-14T03:40:49;100754.66;;;17.98;34.96
76285;BME280;65096;50.998;7.098;2023-06-14T03:43:16;100752.16;;;17.94;35.33
76285;BME280;65096;50.998;7.098;2023-06-14T03:45:42;100758.41;;;17.88;35.81
76285;BME280;65096;50.998;7.098;2023-06-14T03:48:10;100761.03;;;17.87;35.33
76285;BME280;65096;50.998;7.098;2023-06-14T03:50:36;100757.66;;;17.82;35.95
76285;BME280;65096;50.998;7.098;2023-06-14T03:53:03;100770.72;;;17.80;35.77
76285;BME280;65096;50.998;7.098;2023-06-14T03:55:30;100765.63;;;17.74;36.24
76285;BME280;65096;50.998;7.098;2023-06-14T03:58:00;100770.91;;;17.71;36.01
76285;BME280;65096;50.998;7.098;2023-06-14T04:00:26;100767.50;;;17.69;36.44
76285;BME280;65096;50.998;7.098;2023-06-14T04:02:53;100776.25;;;17.65;36.16
76285;BME280;65096;50.998;7.098;2023-06-14T04:05:20;100771.16;;;17.60;36.16
76285;BME280;65096;50.998;7.098;2023-06-14T04:07:46;100783.34;;;17.58;36.07
76285;BME280;65096;50.998;7.098;2023-06-14T04:10:15;100779.09;;;17.54;36.10
76285;BME280;65096;50.998;7.098;2023-06-14T04:12:42;100785.25;;;17.50;36.40
76285;BME280;65096;50.998;7.098;2023-06-14T04:15:10;100782.72;;;17.47;36.12
76285;BME280;65096;50.998;7.098;2023-06-14T04:17:37;100783.69;;;17.43;36.57
76285;BME280;65096;50.998;7.098;2023-06-14T04:20:05;100791.63;;;17.37;36.18
76285;BME280;65096;50.998;7.098;2023-06-14T04:22:35;100789.06;;;17.34;36.61
76285;BME280;65096;50.998;7.098;2023-06-14T04:25:02;100797.81;;;17.32;36.90
76285;BME280;65096;50.998;7.098;2023-06-14T04:27:31;100792.72;;;17.27;36.58
76285;BME280;65096;50.998;7.098;2023-06-14T04:29:59;100803.09;;;17.29;36.74
76285;BME280;65096;50.998;7.098;2023-06-14T04:32:29;100801.41;;;17.26;37.04
76285;BME280;65096;50.998;7.098;2023-06-14T04:34:58;100805.81;;;17.24;36.75
76285;BME280;65096;50.998;7.098;2023-06-14T04:37:27;100809.28;;;17.23;36.95
76285;BME280;65096;50.998;7.098;2023-06-14T04:39:54;100809.41;;;17.17;36.98
76285;BME280;65096;50.998;7.098;2023-06-14T04:42:22;100812.94;;;17.13;37.53
76285;BME280;65096;50.998;7.098;2023-06-14T04:44:50;100813.84;;;17.12;37.56
76285;BME280;65096;50.998;7.098;2023-06-14T04:47:17;100820.78;;;17.12;37.62
76285;BME280;65096;50.998;7.098;2023-06-14T04:49:45;100826.88;;;17.12;37.43
76285;BME280;65096;50.998;7.098;2023-06-14T04:52:12;100826.91;;;17.11;37.94
76285;BME280;65096;50.998;7.098;2023-06-14T04:54:39;100827.81;;;17.10;38.05
76285;BME280;65096;50.998;7.098;2023-06-14T04:57:08;100832.19;;;17.06;37.78
76285;BME280;65096;50.998;7.098;2023-06-14T04:59:39;100831.31;;;17.07;38.14
76285;BME280;65096;50.998;7.098;2023-06-14T05:02:06;100832.13;;;17.09;38.53
76285;BME280;65096;50.998;7.098;2023-06-14T05:04:34;100831.31;;;17.04;38.81
76285;BME280;65096;50.998;7.098;2023-06-14T05:07:06;100834.78;;;17.08;38.63
76285;BME280;65096;50.998;7.098;2023-06-14T05:09:33;100833.00;;;17.10;38.52
76285;BME280;65096;50.998;7.098;2023-06-14T05:11:59;100833.78;;;17.13;38.59
76285;BME280;65096;50.998;7.098;2023-06-14T05:14:26;100826.81;;;17.15;39.48
76285;BME280;65096;50.998;7.098;2023-06-14T05:16:53;100833.75;;;17.16;38.73
76285;BME280;65096;50.998;7.098;2023-06-14T05:19:19;100834.50;;;17.21;39.17
76285;BME280;65096;50.998;7.098;2023-06-14T05:21:47;100839.69;;;17.24;39.50
76285;BME280;65096;50.998;7.098;2023-06-14T05:24:15;100835.28;;;17.26;38.71
76285;BME280;65096;50.998;7.098;2023-06-14T05:26:42;100837.94;;;17.23;39.03
76285;BME280;65096;50.998;7.098;2023-06-14T05:29:09;100837.88;;;17.26;38.64
76285;BME280;65096;50.998;7.098;2023-06-14T05:31:36;100843.09;;;17.26;38.51
76285;BME280;65096;50.998;7.098;2023-06-14T05:34:03;100842.16;;;17.30;38.61
76285;BME280;65096;50.998;7.098;2023-06-14T05:36:30;100839.47;;;17.35;39.23
76285;BME280;65096;50.998;7.098;2023-06-14T05:38:57;100836.03;;;17.33;38.85
76285;BME280;65096;50.998;7.098;2023-06-14T05:41:26;100833.34;;;17.36;38.74
76285;BME280;65096;50.998;7.098;2023-06-14T05:43:54;100840.31;;;17.37;39.06
76285;BME280;65096;50.998;7.098;2023-06-14T05:46:21;100840.31;;;17.37;38.24
76285;BME280;65096;50.998;7.098;2023-06-14T05:48:50;100838.47;;;17.42;38.40
76285;BME280;65096;50.998;7.098;2023-06-14T05:51:17;100841.00;;;17.45;38.69
76285;BME280;65096;50.998;7.098;2023-06-14T05:53:45;100853.97;;;17.49;38.57
76285;BME280;65096;50.998;7.098;2023-06-14T05:56:11;100858.22;;;17.53;37.60
76285;BME280;65096;50.998;7.098;2023-06-14T05:58:39;100854.69;;;17.56;37.65
76285;BME280;65096;50.998;7.098;2023-06-14T06:01:06;100859.13;;;17.51;37.40
76285;BME280;65096;50.998;7.098;2023-06-14T06:03:33;100859.41;;;17.36;38.16
76285;BME280;65096;50.998;7.098;2023-06-14T06:05:59;100859.13;;;17.51;37.65
76285;BME280;65096;50.998;7.098;2023-06-14T06:08:26;100854.66;;;17.57;38.38
76285;BME280;65096;50.998;7.098;2023-06-14T06:10:53;100854.63;;;17.59;37.39
76285;BME280;65096;50.998;7.098;2023-06-14T06:13:20;100858.03;;;17.63;37.68
76285;BME280;65096;50.998;7.098;2023-06-14T06:15:48;100864.72;;;17.74;37.56
76285;BME280;65096;50.998;7.098;2023-06-14T06:18:14;100860.06;;;17.91;36.77
76285;BME280;65096;50.998;7.098;2023-06-14T06:20:41;100868.81;;;17.89;35.96
76285;BME280;65096;50.998;7.098;2023-06-14T06:23:09;100863.69;;;17.83;36.82
76285;BME280;65096;50.998;7.098;2023-06-14T06:25:36;100858.91;;;17.61;36.40
76285;BME280;65096;50.998;7.098;2023-06-14T06:28:03;100865.53;;;17.78;36.79
76285;BME280;65096;50.998;7.098;2023-06-14T06:30:30;100872.22;;;17.92;36.35
76285;BME280;65096;50.998;7.098;2023-06-14T06:32:57;100874.50;;;18.07;36.71
76285;BME280;65096;50.998;7.098;2023-06-14T06:35:24;100878.66;;;18.16;35.81
76285;BME280;65096;50.998;7.098;2023-06-14T06:37:51;100879.78;;;18.06;35.89
76285;BME280;65096;50.998;7.098;2023-06-14T06:40:18;100884.31;;;17.96;36.04
76285;BME280;65096;50.998;7.098;2023-06-14T06:42:44;100882.69;;;17.91;36.09
76285;BME280;65096;50.998;7.098;2023-06-14T06:45:11;100885.94;;;18.02;35.58
76285;BME280;65096;50.998;7.098;2023-06-14T06:47:38;100887.16;;;18.25;35.93
76285;BME280;65096;50.998;7.098;2023-06-14T06:50:07;100886.94;;;18.34;36.25
76285;BME280;65096;50.998;7.098;2023-06-14T06:52:34;100892.00;;;18.42;35.23
76285;BME280;65096;50.998;7.098;2023-06-14T06:55:01;100883.69;;;18.61;35.43
76285;BME280;65096;50.998;7.098;2023-06-14T06:57:28;100886.94;;;18.72;35.00
76285;BME280;65096;50.998;7.098;2023-06-14T06:59:55;100892.44;;;18.97;34.57
76285;BME280;65096;50.998;7.098;2023-06-14T07:02:22;100906.00;;;19.11;34.52
76285;BME280;65096;50.998;7.098;2023-06-14T07:04:48;100894.88;;;19.03;33.64
76285;BME280;65096;50.998;7.098;2023-06-14T07:07:17;100898.16;;;19.11;32.59
76285;BME280;65096;50.998;7.098;2023-06-14T07:09:44;100899.69;;;19.20;34.14
76285;BME280;65096;50.998;7.098;2023-06-14T07:12:11;100901.22;;;19.27;33.02
76285;BME280;65096;50.998;7.098;2023-06-14T07:14:38;100900.78;;;19.45;31.54
76285;BME280;65096;50.998;7.098;2023-06-14T07:17:05;100903.03;;;19.57;33.30
76285;BME280;65096;50.998;7.098;2023-06-14T07:19:32;100897.16;;;19.49;30.68
76285;BME280;65096;50.998;7.098;2023-06-14T07:21:58;100898.38;;;19.37;30.69
76285;BME280;65096;50.998;7.098;2023-06-14T07:24:26;100900.91;;;19.40;30.29
76285;BME280;65096;50.998;7.098;2023-06-14T07:26:54;100906.25;;;19.66;31.07
76285;BME280;65096;50.998;7.098;2023-06-14T07:29:21;100895.88;;;19.63;30.36
76285;BME280;65096;50.998;7.098;2023-06-14T07:31:48;100894.69;;;19.75;30.83
76285;BME280;65096;50.998;7.098;2023-06-14T07:34:14;100900.22;;;19.95;31.20
76285;BME280;65096;50.998;7.098;2023-06-14T07:36:41;100896.88;;;20.20;31.32
76285;BME280;65096;50.998;7.098;2023-06-14T07:39:09;100895.44;;;20.38;30.31
76285;BME280;65096;50.998;7.098;2023-06-14T07:41:37;100897.31;;;20.61;29.90
76285;BME280;65096;50.998;7.098;2023-06-14T07:44:04;100897.25;;;20.64;30.09
76285;BME280;65096;50.998;7.098;2023-06-14T07:46:31;100891.47;;;20.80;30.01
76285;BME280;65096;50.998;7.098;2023-06-14T07:48:57;100895.56;;;20.89;28.79
76285;BME280;65096;50.998;7.098;2023-06-14T07:51:24;100897.94;;;20.96;28.56
76285;BME280;65096;50.998;7.098;2023-06-14T07:53:50;100892.53;;;21.01;27.76
76285;BME280;65096;50.998;7.098;2023-06-14T07:56:17;100888.81;;;21.08;27.81
76285;BME280;65096;50.998;7.098;2023-06-14T07:58:45;100884.69;;;21.25;28.52
76285;BME280;65096;50.998;7.098;2023-06-14T08:01:12;100886.50;;;21.23;26.72
76285;BME280;65096;50.998;7.098;2023-06-14T08:03:38;100892.03;;;21.40;26.99
76285;BME280;65096;50.998;7.098;2023-06-14T08:06:06;100886.16;;;21.34;25.20
76285;BME280;65096;50.998;7.098;2023-06-14T08:08:33;100882.94;;;21.26;25.36
76285;BME280;65096;50.998;7.098;2023-06-14T08:10:59;100887.16;;;21.30;26.80
76285;BME280;65096;50.998;7.098;2023-06-14T08:13:26;100880.88;;;21.58;27.13
76285;BME280;65096;50.998;7.098;2023-06-14T08:15:54;100883.91;;;21.73;26.71
76285;BME280;65096;50.998;7.098;2023-06-14T08:18:22;100888.44;;;21.91;26.78
76285;BME280;65096;50.998;7.098;2023-06-14T08:20:49;100892.63;;;21.96;26.55
76285;BME280;65096;50.998;7.098;2023-06-14T08:23:17;100893.06;;;22.07;25.97
76285;BME280;65096;50.998;7.098;2023-06-14T08:25:46;100892.75;;;22.16;25.59
76285;BME280;65096;50.998;7.098;2023-06-14T08:28:12;100882.59;;;22.29;26.40
76285;BME280;65096;50.998;7.098;2023-06-14T08:30:39;100888.41;;;22.37;25.80
76285;BME280;65096;50.998;7.098;2023-06-14T08:33:07;100888.81;;;22.49;25.05
76285;BME280;65096;50.998;7.098;2023-06-14T08:35:34;100890.81;;;22.64;25.66
76285;BME280;65096;50.998;7.098;2023-06-14T08:38:02;100891.28;;;22.74;24.07
76285;BME280;65096;50.998;7.098;2023-06-14T08:40:30;100893.25;;;22.90;25.41
76285;BME280;65096;50.998;7.098;2023-06-14T08:42:57;100886.84;;;23.18;25.28
76285;BME280;65096;50.998;7.098;2023-06-14T08:45:24;100874.22;;;23.26;25.55
76285;BME280;65096;50.998;7.098;2023-06-14T08:47:51;100886.25;;;23.51;23.33
76285;BME280;65096;50.998;7.098;2023-06-14T08:50:25;100876.03;;;23.64;24.47
76285;BME280;65096;50.998;7.098;2023-06-14T08:52:56;100879.69;;;23.80;22.18
76285;BME280;65096;50.998;7.098;2023-06-14T08:55:26;100884.22;;;23.76;23.38
76285;BME280;65096;50.998;7.098;2023-06-14T08:57:54;100883.19;;;23.80;22.81
76285;BME280;65096;50.998;7.098;2023-06-14T09:00:22;100889.03;;;23.87;22.69
76285;BME280;65096;50.998;7.098;2023-06-14T09:02:49;100890.44;;;23.94;23.44
76285;BME280;65096;50.998;7.098;2023-06-14T09:05:21;100885.78;;;24.00;23.26
76285;BME280;65096;50.998;7.098;2023-06-14T09:07:49;100879.75;;;23.97;23.03
76285;BME280;65096;50.998;7.098;2023-06-14T09:10:16;100878.53;;;24.05;24.36
76285;BME280;65096;50.998;7.098;2023-06-14T09:12:43;100880.72;;;24.33;23.74
76285;BME280;65096;50.998;7.098;2023-06-14T09:15:10;100875.72;;;24.45;23.49
76285;BME280;65096;50.998;7.098;2023-06-14T09:17:37;100880.69;;;24.70;24.02
76285;BME280;65096;50.998;7.098;2023-06-14T09:20:06;100879.66;;;24.90;23.38
76285;BME280;65096;50.998;7.098;2023-06-14T09:22:36;100884.09;;;25.06;22.84
76285;BME280;65096;50.998;7.098;2023-06-14T09:25:05;100868.59;;;25.17;22.58
76285;BME280;65096;50.998;7.098;2023-06-14T09:27:33;100855.63;;;25.13;22.73
76285;BME280;65096;50.998;7.098;2023-06-14T09:30:01;100881.16;;;25.46;22.00
76285;BME280;65096;50.998;7.098;2023-06-14T09:32:28;100878.56;;;25.29;21.41
76285;BME280;65096;50.998;7.098;2023-06-14T09:34:56;100883.53;;;25.51;22.06
76285;BME280;65096;50.998;7.098;2023-06-14T09:37:27;100883.75;;;25.63;21.88
76285;BME280;65096;50.998;7.098;2023-06-14T09:39:55;100887.09;;;25.67;21.84
76285;BME280;65096;50.998;7.098;2023-06-14T09:42:23;100892.28;;;25.86;22.04
76285;BME280;65096;50.998;7.098;2023-06-14T09:44:52;100857.72;;;25.23;21.33
76285;BME280;65096;50.998;7.098;2023-06-14T09:47:20;100898.56;;;25.50;22.61
76285;BME280;65096;50.998;7.098;2023-06-14T09:49:47;100873.34;;;25.77;22.61
76285;BME280;65096;50.998;7.098;2023-06-14T09:52:16;100895.28;;;26.26;21.36
76285;BME280;65096;50.998;7.098;2023-06-14T09:54:44;100884.91;;;26.39;20.57
76285;BME280;65096;50.998;7.098;2023-06-14T09:57:12;100890.09;;;26.40;20.71
76285;BME280;65096;50.998;7.098;2023-06-14T09:59:42;100893.69;;;26.70;21.74
76285;BME280;65096;50.998;7.098;2023-06-14T10:02:11;100889.72;;;26.93;20.01
76285;BME280;65096;50.998;7.098;2023-06-14T10:04:50;100893.00;;;26.67;20.89
76285;BME280;65096;50.998;7.098;2023-06-14T10:07:19;100889.22;;;27.16;19.08
76285;BME280;65096;50.998;7.098;2023-06-14T10:09:47;100885.38;;;27.36;18.33
76285;BME280;65096;50.998;7.098;2023-06-14T10:12:16;100885.28;;;27.37;19.30
76285;BME280;65096;50.998;7.098;2023-06-14T10:14:49;100879.75;;;27.70;19.73
76285;BME280;65096;50.998;7.098;2023-06-14T10:17:22;100881.72;;;27.80;19.75
76285;BME280;65096;50.998;7.098;2023-06-14T10:19:58;100880.50;;;27.86;19.28
76285;BME280;65096;50.998;7.098;2023-06-14T10:22:33;100880.41;;;27.59;19.88
76285;BME280;65096;50.998;7.098;2023-06-14T10:25:01;100876.63;;;28.05;19.92
76285;BME280;65096;50.998;7.098;2023-06-14T10:27:28;100878.41;;;28.19;20.09
76285;BME280;65096;50.998;7.098;2023-06-14T10:30:06;100871.19;;;28.21;19.43
76285;BME280;65096;50.998;7.098;2023-06-14T10:32:34;100883.69;;;27.91;19.98
76285;BME280;65096;50.998;7.098;2023-06-14T10:35:01;100875.78;;;28.05;19.32
76285;BME280;65096;50.998;7.098;2023-06-14T10:37:30;100874.34;;;27.99;20.46
76285;BME280;65096;50.998;7.098;2023-06-14T10:39:57;100880.41;;;28.42;20.65
76285;BME280;65096;50.998;7.098;2023-06-14T10:42:29;100886.25;;;28.20;20.45
76285;BME280;65096;50.998;7.098;2023-06-14T10:44:58;100887.81;;;28.51;20.68
76285;BME280;65096;50.998;7.098;2023-06-14T10:47:30;100879.03;;;28.63;19.82
76285;BME280;65096;50.998;7.098;2023-06-14T10:50:03;100873.59;;;28.79;19.65
76285;BME280;65096;50.998;7.098;2023-06-14T10:52:33;100869.66;;;28.84;20.35
76285;BME280;65096;50.998;7.098;2023-06-14T10:55:08;100876.06;;;28.68;20.46
76285;BME280;65096;50.998;7.098;2023-06-14T10:57:37;100863.66;;;28.68;19.94
76285;BME280;65096;50.998;7.098;2023-06-14T11:00:07;100876.03;;;28.82;19.55
76285;BME280;65096;50.998;7.098;2023-06-14T11:05:53;100867.47;;;28.64;20.36
76285;BME280;65096;50.998;7.098;2023-06-14T11:08:40;100874.03;;;28.98;20.92
76285;BME280;65096;50.998;7.098;2023-06-14T11:11:13;100861.56;;;29.25;20.29
76285;BME280;65096;50.998;7.098;2023-06-14T11:13:44;100880.38;;;29.47;19.81
76285;BME280;65096;50.998;7.098;2023-06-14T11:16:11;100867.44;;;29.67;19.84
76285;BME280;65096;50.998;7.098;2023-06-14T11:18:40;100872.94;;;29.77;20.47
76285;BME280;65096;50.998;7.098;2023-06-14T11:21:07;100863.69;;;29.82;19.48
76285;BME280;65096;50.998;7.098;2023-06-14T11:23:35;100862.38;;;29.88;19.71
76285;BME280;65096;50.998;7.098;2023-06-14T11:26:02;100867.50;;;29.78;18.95
76285;BME280;65096;50.998;7.098;2023-06-14T11:28:37;100866.25;;;29.59;19.13
76285;BME280;65096;50.998;7.098;2023-06-14T11:31:04;100864.34;;;29.61;18.66
76285;BME280;65096;50.998;7.098;2023-06-14T11:33:31;100868.59;;;29.51;18.89
76285;BME280;65096;50.998;7.098;2023-06-14T11:36:01;100864.34;;;29.61;19.09
76285;BME280;65096;50.998;7.098;2023-06-14T11:38:28;100858.25;;;29.84;19.26
76285;BME280;65096;50.998;7.098;2023-06-14T11:40:59;100849.84;;;30.03;18.89
76285;BME280;65096;50.998;7.098;2023-06-14T11:43:26;100854.66;;;30.21;18.98
76285;BME280;65096;50.998;7.098;2023-06-14T11:45:53;100852.91;;;30.09;17.06
76285;BME280;65096;50.998;7.098;2023-06-14T11:48:19;100846.88;;;30.31;18.36
76285;BME280;65096;50.998;7.098;2023-06-14T11:50:49;100858.97;;;29.86;17.81
76285;BME280;65096;50.998;7.098;2023-06-14T11:53:17;100855.22;;;30.37;17.75
76285;BME280;65096;50.998;7.098;2023-06-14T11:55:44;100867.91;;;29.98;17.77
76285;BME280;65096;50.998;7.098;2023-06-14T11:58:13;100860.59;;;29.38;17.70
76285;BME280;65096;50.998;7.098;2023-06-14T12:00:40;100859.81;;;28.60;18.01
76285;BME280;65096;50.998;7.098;2023-06-14T12:03:07;100864.00;;;28.76;18.18
76285;BME280;65096;50.998;7.098;2023-06-14T12:05:33;100850.31;;;29.34;18.24
76285;BME280;65096;50.998;7.098;2023-06-14T12:08:02;100852.72;;;29.87;17.81
76285;BME280;65096;50.998;7.098;2023-06-14T12:10:41;100853.59;;;30.24;18.05
76285;BME280;65096;50.998;7.098;2023-06-14T12:13:09;100854.56;;;30.46;17.12
76285;BME280;65096;50.998;7.098;2023-06-14T12:15:36;100856.72;;;30.41;17.16
76285;BME280;65096;50.998;7.098;2023-06-14T12:18:05;100858.91;;;30.71;17.29
76285;BME280;65096;50.998;7.098;2023-06-14T12:20:33;100859.41;;;30.05;17.75
76285;BME280;65096;50.998;7.098;2023-06-14T12:23:03;100845.91;;;30.55;17.61
76285;BME280;65096;50.998;7.098;2023-06-14T12:25:31;100846.50;;;30.82;17.05
76285;BME280;65096;50.998;7.098;2023-06-14T12:28:04;100861.47;;;30.49;17.33
76285;BME280;65096;50.998;7.098;2023-06-14T12:30:31;100842.91;;;30.36;18.00
76285;BME280;65096;50.998;7.098;2023-06-14T12:32:57;100859.13;;;30.57;17.61
76285;BME280;65096;50.998;7.098;2023-06-14T12:35:24;100863.81;;;30.53;17.48
76285;BME280;65096;50.998;7.098;2023-06-14T12:37:50;100858.38;;;29.70;17.91
76285;BME280;65096;50.998;7.098;2023-06-14T12:40:17;100860.88;;;30.09;18.31
76285;BME280;65096;50.998;7.098;2023-06-14T12:42:44;100856.78;;;30.52;17.95
76285;BME280;65096;50.998;7.098;2023-06-14T12:45:14;100866.97;;;29.86;17.71
76285;BME280;65096;50.998;7.098;2023-06-14T12:47:41;100868.59;;;29.51;18.43
76285;BME280;65096;50.998;7.098;2023-06-14T12:50:08;100868.94;;;30.20;17.41
76285;BME280;65096;50.998;7.098;2023-06-14T12:52:34;100871.72;;;30.42;17.70
76285;BME280;65096;50.998;7.098;2023-06-14T12:55:01;100874.09;;;29.86;17.62
76285;BME280;65096;50.998;7.098;2023-06-14T12:57:28;100863.09;;;30.15;18.01